createdAt,value
2022-11-05T00:01:24.139Z,100.00
2022-11-05T00:04:07.193Z,100.00
2022-11-05T00:06:53.997Z,100.00
2022-11-05T00:09:30.671Z,100.00
2022-11-05T00:12:25.644Z,100.00
2022-11-05T00:15:12.546Z,100.00
2022-11-05T00:17:41.842Z,100.00
2022-11-05T00:20:13.664Z,100.00
2022-11-05T00:23:00.554Z,100.00
2022-11-05T00:25:31.195Z,100.00
2022-11-05T00:28:03.514Z,100.00
2022-11-05T00:30:32.683Z,100.00
2022-11-05T00:33:03.606Z,100.00
2022-11-05T00:35:32.622Z,100.00
2022-11-05T00:38:01.730Z,100.00
2022-11-05T00:40:32.319Z,100.00
2022-11-05T00:43:18.694Z,100.00
2022-11-05T00:45:47.797Z,100.00
2022-11-05T00:48:34.483Z,100.00
2022-11-05T00:51:03.562Z,100.00
2022-11-05T00:53:33.098Z,100.00
2022-11-05T00:56:04.074Z,100.00
2022-11-05T00:58:33.186Z,100.00
2022-11-05T01:01:03.280Z,100.00
2022-11-05T01:03:34.896Z,100.00
2022-11-05T01:06:10.458Z,100.00
2022-11-05T01:08:40.324Z,100.00
2022-11-05T01:11:13.385Z,100.00
2022-11-05T01:13:42.556Z,100.00
2022-11-05T01:16:11.902Z,100.00
2022-11-05T01:18:41.154Z,100.00
2022-11-05T01:21:15.862Z,100.00
2022-11-05T01:23:45.652Z,100.00
2022-11-05T01:26:16.363Z,100.00
2022-11-05T01:28:45.657Z,100.00
2022-11-05T01:31:14.745Z,100.00
2022-11-05T01:33:43.768Z,100.00
2022-11-05T01:36:13.070Z,100.00
2022-11-05T01:38:42.529Z,100.00
2022-11-05T01:41:11.770Z,100.00
2022-11-05T01:43:52.683Z,100.00
2022-11-05T01:46:28.622Z,100.00
2022-11-05T01:49:03.602Z,100.00
2022-11-05T01:51:33.191Z,100.00
2022-11-05T01:54:05.881Z,100.00
2022-11-05T01:56:39.355Z,100.00
2022-11-05T01:59:14.827Z,100.00
2022-11-05T02:01:45.331Z,100.00
2022-11-05T02:04:19.409Z,100.00
2022-11-05T02:06:48.602Z,100.00
2022-11-05T02:09:26.439Z,100.00
2022-11-05T02:11:55.790Z,100.00
2022-11-05T02:14:26.558Z,100.00
2022-11-05T02:17:05.637Z,100.00
2022-11-05T02:20:20.286Z,100.00
2022-11-05T02:23:27.018Z,100.00
2022-11-05T02:26:40.096Z,100.00
2022-11-05T02:30:09.181Z,100.00
2022-11-05T02:33:04.694Z,100.00
2022-11-05T02:36:00.215Z,100.00
2022-11-05T02:38:41.616Z,100.00
2022-11-05T02:41:23.674Z,100.00
2022-11-05T02:44:07.034Z,100.00
2022-11-05T02:46:47.094Z,100.00
2022-11-05T02:49:33.021Z,100.00
2022-11-05T02:52:07.706Z,100.00
2022-11-05T02:54:44.301Z,100.00
2022-11-05T02:57:13.595Z,100.00
2022-11-05T02:59:43.738Z,100.00
2022-11-05T03:02:13.081Z,100.00
2022-11-05T03:04:43.786Z,100.00
2022-11-05T03:07:32.323Z,100.00
2022-11-05T03:10:33.516Z,100.00
2022-11-05T03:13:15.523Z,100.00
2022-11-05T03:15:57.479Z,100.00
2022-11-05T03:18:35.732Z,100.00
2022-11-05T03:21:12.530Z,100.00
2022-11-05T03:23:50.534Z,100.00
2022-11-05T03:26:25.118Z,100.00
2022-11-05T03:29:00.815Z,100.00
2022-11-05T03:31:32.006Z,100.00
2022-11-05T03:34:02.869Z,100.00
2022-11-05T03:36:41.444Z,100.00
2022-11-05T03:39:16.181Z,100.00
2022-11-05T03:41:50.350Z,100.00
2022-11-05T03:44:26.534Z,100.00
2022-11-05T03:47:03.389Z,100.00
2022-11-05T03:49:39.398Z,100.00
2022-11-05T03:52:14.505Z,100.00
2022-11-05T03:54:43.612Z,100.00
2022-11-05T03:57:20.766Z,100.00
2022-11-05T03:59:51.948Z,100.00
2022-11-05T04:02:25.918Z,100.00
2022-11-05T04:04:56.161Z,100.00
2022-11-05T04:07:46.552Z,100.00
2022-11-05T04:10:33.227Z,100.00
2022-11-05T04:13:19.429Z,100.00
2022-11-05T04:16:05.817Z,100.00
2022-11-05T04:18:34.829Z,100.00
2022-11-05T04:21:21.415Z,100.00
2022-11-05T04:24:10.721Z,100.00
2022-11-05T04:26:41.606Z,100.00
2022-11-05T04:29:29.019Z,100.00
2022-11-05T04:31:58.408Z,100.00
2022-11-05T04:34:27.444Z,100.00
2022-11-05T04:36:56.506Z,100.00
2022-11-05T04:39:27.071Z,100.00
2022-11-05T04:41:56.113Z,100.00
2022-11-05T04:44:25.126Z,100.00
2022-11-05T04:46:54.182Z,100.00
2022-11-05T04:49:23.230Z,100.00
2022-11-05T04:51:52.266Z,100.00
2022-11-05T04:54:21.310Z,100.00
2022-11-05T04:56:51.691Z,100.00
2022-11-05T04:59:20.786Z,100.00
2022-11-05T05:01:53.300Z,100.00
2022-11-05T05:04:22.386Z,100.00
2022-11-05T05:06:51.389Z,100.00
2022-11-05T05:09:20.637Z,100.00
2022-11-05T05:11:51.008Z,100.00
2022-11-05T05:14:20.098Z,100.00
2022-11-05T05:16:49.184Z,100.00
2022-11-05T05:19:18.346Z,100.00
2022-11-05T05:21:46.362Z,100.00
2022-11-05T05:24:18.717Z,100.00
2022-11-05T05:26:49.791Z,100.00
2022-11-05T05:29:20.308Z,100.00
2022-11-05T05:31:49.349Z,100.00
2022-11-05T05:34:18.416Z,100.00
2022-11-05T05:36:47.522Z,100.00
2022-11-05T05:39:16.642Z,100.00
2022-11-05T05:41:45.792Z,100.00
2022-11-05T05:44:14.899Z,100.00
2022-11-05T05:46:45.421Z,100.00
2022-11-05T05:49:14.706Z,100.00
2022-11-05T05:51:43.791Z,100.00
2022-11-05T05:54:13.208Z,100.00
2022-11-05T05:56:44.669Z,100.00
2022-11-05T05:59:13.971Z,100.00
2022-11-05T06:01:44.561Z,100.00
2022-11-05T06:04:13.898Z,100.00
2022-11-05T06:06:43.062Z,100.00
2022-11-05T06:09:12.320Z,100.00
2022-11-05T06:11:41.419Z,100.00
2022-11-05T06:14:12.538Z,100.00
2022-11-05T06:16:41.965Z,100.00
2022-11-05T06:19:12.422Z,100.00
2022-11-05T06:21:41.447Z,100.00
2022-11-05T06:24:11.317Z,100.00
2022-11-05T06:26:43.290Z,100.00
2022-11-05T06:29:12.451Z,100.00
2022-11-05T06:31:41.527Z,100.00
2022-11-05T06:34:12.043Z,100.00
2022-11-05T06:36:41.257Z,100.00
2022-11-05T06:39:12.304Z,100.00
2022-11-05T06:44:30.414Z,100.00
2022-11-05T06:47:00.342Z,100.00
2022-11-05T06:49:30.798Z,100.00
2022-11-05T06:52:00.029Z,100.00
2022-11-05T06:54:29.269Z,100.00
2022-11-05T06:56:58.374Z,100.00
2022-11-05T06:59:27.477Z,100.00
2022-11-05T07:01:56.641Z,100.00
2022-11-05T07:04:25.885Z,100.00
2022-11-05T07:06:56.617Z,100.00
2022-11-05T07:09:25.933Z,100.00
2022-11-05T07:11:55.311Z,100.00
2022-11-05T07:14:24.471Z,100.00
2022-11-05T07:16:53.577Z,100.00
2022-11-05T07:19:22.773Z,100.00
2022-11-05T07:21:52.466Z,100.00
2022-11-05T07:24:23.242Z,100.00
2022-11-05T07:26:52.402Z,100.00
2022-11-05T07:29:21.522Z,100.00
2022-11-05T07:31:50.652Z,100.00
2022-11-05T07:34:19.787Z,100.00
2022-11-05T07:36:48.854Z,100.00
2022-11-05T07:39:17.990Z,100.00
2022-11-05T07:41:48.461Z,100.00
2022-11-05T07:44:17.719Z,100.00
2022-11-05T07:46:46.771Z,100.00
2022-11-05T07:49:15.947Z,100.00
2022-11-05T07:51:46.599Z,99.15
2022-11-05T07:54:15.868Z,100.00
2022-11-05T07:56:45.544Z,96.66
2022-11-05T07:59:16.244Z,95.84
2022-11-05T08:01:45.468Z,95.94
2022-11-05T08:04:15.205Z,94.86
2022-11-05T08:06:44.292Z,97.29
2022-11-05T08:09:13.691Z,93.49
2022-11-05T08:11:42.934Z,93.12
2022-11-05T08:14:12.160Z,90.42
2022-11-05T08:16:42.806Z,91.59
2022-11-05T08:19:12.083Z,89.02
2022-11-05T08:21:41.154Z,89.48
2022-11-05T08:24:11.063Z,90.37
2022-11-05T08:26:40.212Z,90.84
2022-11-05T08:29:09.271Z,88.05
2022-11-05T08:31:38.410Z,88.41
2022-11-05T08:34:08.850Z,89.96
2022-11-05T08:36:37.894Z,85.72
2022-11-05T08:39:06.959Z,86.33
2022-11-05T08:41:36.270Z,84.25
2022-11-05T08:44:05.945Z,84.51
2022-11-05T08:46:41.265Z,84.97
2022-11-05T08:49:12.299Z,85.12
2022-11-05T08:51:41.436Z,81.27
2022-11-05T08:54:10.595Z,80.62
2022-11-05T08:56:39.657Z,81.15
2022-11-05T08:59:08.974Z,82.54
2022-11-05T09:01:38.270Z,81.68
2022-11-05T09:04:07.521Z,82.74
2022-11-05T09:06:37.981Z,76.50
2022-11-05T09:09:07.107Z,71.39
2022-11-05T09:11:57.449Z,73.95
2022-11-05T09:14:27.103Z,75.19
2022-11-05T09:16:56.223Z,72.58
2022-11-05T09:19:25.231Z,73.90
2022-11-05T09:21:55.707Z,73.72
2022-11-05T09:24:24.707Z,75.30
2022-11-05T09:26:53.866Z,72.62
2022-11-05T09:29:23.151Z,73.79
2022-11-05T09:31:52.284Z,74.75
2022-11-05T09:34:21.328Z,73.72
2022-11-05T09:36:50.499Z,72.18
2022-11-05T09:39:20.910Z,70.80
2022-11-05T09:41:51.130Z,71.52
2022-11-05T09:44:25.109Z,73.84
2022-11-05T09:46:59.866Z,71.93
2022-11-05T09:49:35.236Z,72.29
2022-11-05T09:52:04.883Z,72.30
2022-11-05T09:54:35.421Z,72.99
2022-11-05T09:57:07.865Z,72.32
2022-11-05T09:59:43.592Z,71.52
2022-11-05T10:02:19.497Z,69.98
2022-11-05T10:05:06.452Z,69.55
2022-11-05T10:07:50.080Z,72.41
2022-11-05T10:10:40.796Z,70.62
2022-11-05T10:13:23.671Z,72.08
2022-11-05T10:16:01.570Z,70.93
2022-11-05T10:18:35.663Z,71.59
2022-11-05T10:21:05.671Z,72.40
2022-11-05T10:23:35.577Z,71.54
2022-11-05T10:26:11.587Z,70.79
2022-11-05T10:28:41.083Z,72.30
2022-11-05T10:31:13.662Z,71.15
2022-11-05T10:33:47.564Z,72.00
2022-11-05T10:36:24.413Z,72.53
2022-11-05T10:38:54.778Z,70.31
2022-11-05T10:41:43.723Z,70.52
2022-11-05T10:44:32.555Z,70.80
2022-11-05T10:47:25.159Z,71.67
2022-11-05T10:49:59.866Z,70.19
2022-11-05T10:52:35.365Z,71.99
2022-11-05T10:55:12.458Z,70.98
2022-11-05T10:57:43.354Z,69.54
2022-11-05T11:00:31.764Z,70.59
2022-11-05T11:03:04.064Z,70.69
2022-11-05T11:05:37.314Z,71.44
2022-11-05T11:08:24.221Z,71.40
2022-11-05T11:10:57.147Z,68.83
2022-11-05T11:13:30.753Z,71.52
2022-11-05T11:16:21.512Z,71.08
2022-11-05T11:18:56.967Z,70.10
2022-11-05T11:21:26.997Z,69.00
2022-11-05T11:23:58.499Z,70.16
2022-11-05T11:26:32.515Z,69.53
2022-11-05T11:29:14.258Z,68.87
2022-11-05T11:31:43.944Z,69.74
2022-11-05T11:34:23.342Z,68.60
2022-11-05T11:36:57.248Z,67.51
2022-11-05T11:39:31.417Z,69.77
2022-11-05T11:42:03.966Z,69.22
2022-11-05T11:44:40.986Z,70.32
2022-11-05T11:47:14.098Z,70.55
2022-11-05T11:49:47.683Z,68.79
2022-11-05T11:52:19.906Z,70.33
2022-11-05T11:54:48.987Z,70.04
2022-11-05T11:57:27.595Z,69.09
2022-11-05T12:00:09.411Z,68.58
2022-11-05T12:03:15.948Z,70.04
2022-11-05T12:06:08.863Z,68.87
2022-11-05T12:08:56.347Z,70.63
2022-11-05T12:11:37.537Z,70.83
2022-11-05T12:14:21.133Z,70.52
2022-11-05T12:17:12.104Z,68.53
2022-11-05T12:20:08.928Z,70.62
2022-11-05T12:23:02.120Z,70.08
2022-11-05T12:25:43.107Z,70.75
2022-11-05T12:28:36.146Z,71.20
2022-11-05T12:31:20.904Z,70.51
2022-11-05T12:34:04.562Z,69.60
2022-11-05T12:36:52.974Z,70.66
2022-11-05T12:39:45.267Z,70.39
2022-11-05T12:42:35.700Z,70.11
2022-11-05T12:45:21.714Z,69.37
2022-11-05T12:48:07.150Z,69.65
2022-11-05T12:50:45.352Z,69.76
2022-11-05T12:53:42.961Z,68.16
2022-11-05T12:56:19.739Z,68.60
2022-11-05T12:58:56.153Z,68.27
2022-11-05T13:01:33.854Z,68.79
2022-11-05T13:04:09.403Z,68.63
2022-11-05T13:06:44.167Z,69.36
2022-11-05T13:09:18.771Z,69.11
2022-11-05T13:11:54.889Z,70.01
2022-11-05T13:14:29.937Z,68.79
2022-11-05T13:17:04.627Z,67.39
2022-11-05T13:19:39.067Z,69.87
2022-11-05T13:22:22.643Z,69.84
2022-11-05T13:25:02.725Z,68.63
2022-11-05T13:27:59.864Z,69.97
2022-11-05T13:30:34.874Z,69.41
2022-11-05T13:33:09.225Z,68.91
2022-11-05T13:35:46.250Z,68.47
2022-11-05T13:38:43.854Z,69.20
2022-11-05T13:41:29.065Z,68.50
2022-11-05T13:44:16.787Z,69.59
2022-11-05T13:47:25.584Z,69.52
2022-11-05T13:50:31.393Z,70.83
2022-11-05T13:53:27.271Z,70.09
2022-11-05T13:56:11.281Z,71.22
2022-11-05T13:59:35.619Z,70.97
2022-11-05T14:02:13.052Z,70.76
2022-11-05T14:04:46.473Z,70.61
2022-11-05T14:07:20.839Z,70.11
2022-11-05T14:09:59.418Z,71.41
2022-11-05T14:12:33.004Z,70.73
2022-11-05T14:15:08.602Z,72.36
2022-11-05T14:17:57.337Z,71.97
2022-11-05T14:20:58.440Z,73.19
2022-11-05T14:23:54.162Z,73.39
2022-11-05T14:26:26.313Z,72.81
2022-11-05T14:29:25.433Z,73.87
2022-11-05T14:32:11.022Z,74.07
2022-11-05T14:34:51.830Z,75.18
2022-11-05T14:37:34.881Z,75.56
2022-11-05T14:40:36.321Z,75.87
2022-11-05T14:43:21.590Z,75.71
2022-11-05T14:46:00.700Z,76.19
2022-11-05T14:48:40.516Z,76.03
2022-11-05T14:51:27.903Z,76.31
2022-11-05T14:54:05.033Z,76.97
2022-11-05T14:56:44.509Z,76.70
2022-11-05T15:00:02.412Z,75.74
2022-11-05T15:02:39.262Z,77.23
2022-11-05T15:05:50.588Z,76.61
2022-11-05T15:08:52.967Z,78.28
2022-11-05T15:11:26.585Z,78.76
2022-11-05T15:14:04.981Z,78.76
2022-11-05T15:16:42.119Z,78.06
2022-11-05T15:19:21.401Z,78.94
2022-11-05T15:21:58.148Z,78.07
2022-11-05T15:24:29.559Z,79.36
2022-11-05T15:27:07.569Z,78.91
2022-11-05T15:29:36.885Z,80.52
2022-11-05T15:32:15.632Z,80.25
2022-11-05T15:34:55.388Z,81.02
2022-11-05T15:37:27.018Z,81.52
2022-11-05T15:39:57.633Z,82.31
2022-11-05T15:42:28.330Z,82.21
2022-11-05T15:45:01.633Z,82.49
2022-11-05T15:47:31.697Z,82.81
2022-11-05T15:50:08.602Z,83.96
2022-11-05T15:52:49.415Z,84.62
2022-11-05T15:55:23.779Z,85.64
2022-11-05T15:57:59.294Z,85.59
2022-11-05T16:00:32.416Z,86.27
2022-11-05T16:03:06.499Z,87.54
2022-11-05T16:05:44.508Z,87.99
2022-11-05T16:08:20.504Z,90.02
2022-11-05T16:10:52.875Z,90.08
2022-11-05T16:13:33.604Z,89.70
2022-11-05T16:16:05.246Z,90.37
2022-11-05T16:18:37.696Z,91.81
2022-11-05T16:21:11.210Z,92.82
2022-11-05T16:23:53.073Z,94.27
2022-11-05T16:27:01.098Z,96.18
2022-11-05T16:29:34.507Z,97.30
2022-11-05T16:32:06.798Z,97.73
2022-11-05T16:34:41.741Z,98.43
2022-11-05T16:37:16.733Z,98.27
2022-11-05T16:39:45.868Z,100.00
2022-11-05T16:42:48.677Z,99.53
2022-11-05T16:45:20.534Z,99.56
2022-11-05T16:47:50.038Z,99.89
2022-11-05T16:50:34.601Z,100.00
2022-11-05T16:53:06.645Z,100.00
2022-11-05T16:55:37.745Z,100.00
2022-11-05T16:58:08.637Z,100.00
2022-11-05T17:00:37.967Z,100.00
2022-11-05T17:03:07.340Z,100.00
2022-11-05T17:05:36.433Z,100.00
2022-11-05T17:08:07.136Z,100.00
2022-11-05T17:10:36.698Z,100.00
2022-11-05T17:13:05.883Z,100.00
2022-11-05T17:15:36.082Z,100.00
2022-11-05T17:18:12.716Z,100.00
2022-11-05T17:20:50.113Z,100.00
2022-11-05T17:23:24.082Z,100.00
2022-11-05T17:25:56.810Z,100.00
2022-11-05T17:28:27.247Z,100.00
2022-11-05T17:30:57.394Z,100.00
2022-11-05T17:33:27.183Z,100.00
2022-11-05T17:35:57.280Z,100.00
2022-11-05T17:38:28.689Z,100.00
2022-11-05T17:40:57.941Z,100.00
2022-11-05T17:43:27.058Z,100.00
2022-11-05T17:46:04.155Z,100.00
2022-11-05T17:48:36.886Z,100.00
2022-11-05T17:51:09.585Z,100.00
2022-11-05T17:53:40.495Z,100.00
2022-11-05T17:56:11.466Z,100.00
2022-11-05T17:58:41.580Z,100.00
2022-11-05T18:01:27.029Z,100.00
2022-11-05T18:03:56.536Z,100.00
2022-11-05T18:06:25.724Z,100.00
2022-11-05T18:08:56.694Z,100.00
2022-11-05T18:11:25.975Z,100.00
2022-11-05T18:13:55.110Z,100.00
2022-11-05T18:16:24.716Z,100.00
2022-11-05T18:18:54.173Z,100.00
2022-11-05T18:21:23.987Z,100.00
2022-11-05T18:24:06.167Z,100.00
2022-11-05T18:26:40.019Z,100.00
2022-11-05T18:29:10.540Z,100.00
2022-11-05T18:31:45.188Z,100.00
2022-11-05T18:34:16.159Z,100.00
2022-11-05T18:36:45.831Z,100.00
2022-11-05T18:39:16.544Z,100.00
2022-11-05T18:41:45.783Z,100.00
2022-11-05T18:44:16.778Z,100.00
2022-11-05T18:47:01.385Z,100.00
2022-11-05T18:49:30.583Z,100.00
2022-11-05T18:51:59.941Z,100.00
2022-11-05T18:54:30.832Z,100.00
2022-11-05T18:57:00.221Z,100.00
2022-11-05T18:59:39.808Z,100.00
2022-11-05T19:02:12.281Z,100.00
2022-11-05T19:05:00.455Z,100.00
2022-11-05T19:07:36.450Z,100.00
2022-11-05T19:10:09.080Z,100.00
2022-11-05T19:12:38.334Z,100.00
2022-11-05T19:15:09.367Z,100.00
2022-11-05T19:17:38.604Z,100.00
2022-11-05T19:20:10.251Z,100.00
2022-11-05T19:22:39.471Z,100.00
2022-11-05T19:25:10.297Z,100.00
2022-11-05T19:27:39.469Z,100.00
2022-11-05T19:30:09.747Z,100.00
2022-11-05T19:32:38.851Z,100.00
2022-11-05T19:35:09.016Z,100.00
2022-11-05T19:37:38.804Z,100.00
2022-11-05T19:40:14.596Z,100.00
2022-11-05T19:42:44.618Z,100.00
2022-11-05T19:45:42.963Z,100.00
2022-11-05T19:48:05.323Z,100.00
2022-11-05T19:50:36.750Z,100.00
2022-11-05T19:53:06.122Z,100.00
2022-11-05T19:55:40.791Z,100.00
2022-11-05T19:58:10.493Z,100.00
2022-11-05T20:00:39.916Z,100.00
2022-11-05T20:03:09.328Z,100.00
2022-11-05T20:05:38.504Z,100.00
2022-11-05T20:08:07.993Z,100.00
2022-11-05T20:10:39.882Z,100.00
2022-11-05T20:13:09.179Z,100.00
2022-11-05T20:15:39.725Z,100.00
2022-11-05T20:18:11.572Z,100.00
2022-11-05T20:20:42.997Z,100.00
2022-11-05T20:23:13.645Z,100.00
2022-11-05T20:25:47.195Z,100.00
2022-11-05T20:28:16.630Z,100.00
2022-11-05T20:30:45.860Z,100.00
2022-11-05T20:33:14.960Z,100.00
2022-11-05T20:35:44.137Z,100.00
2022-11-05T20:38:13.559Z,100.00
2022-11-05T20:40:44.540Z,100.00
2022-11-05T20:43:13.791Z,100.00
2022-11-05T20:45:42.916Z,100.00
2022-11-05T20:48:12.591Z,100.00
2022-11-05T20:50:42.809Z,100.00
2022-11-05T20:53:14.369Z,100.00
2022-11-05T20:55:48.350Z,100.00
2022-11-05T20:58:18.895Z,100.00
2022-11-05T21:00:54.650Z,100.00
2022-11-05T21:03:24.355Z,100.00
2022-11-05T21:06:00.011Z,100.00
2022-11-05T21:08:29.857Z,100.00
2022-11-05T21:11:00.822Z,100.00
2022-11-05T21:13:31.630Z,100.00
2022-11-05T21:16:02.403Z,100.00
2022-11-05T21:18:35.921Z,100.00
2022-11-05T21:21:07.735Z,100.00
2022-11-05T21:23:37.361Z,100.00
2022-11-05T21:26:10.286Z,100.00
2022-11-05T21:28:41.778Z,100.00
2022-11-05T21:31:12.321Z,100.00
2022-11-05T21:33:41.926Z,100.00
2022-11-05T21:36:13.542Z,100.00
2022-11-05T21:38:43.111Z,100.00
2022-11-05T21:41:16.518Z,100.00
2022-11-05T21:43:45.714Z,100.00
2022-11-05T21:46:15.388Z,100.00
2022-11-05T21:48:44.613Z,100.00
2022-11-05T21:51:31.252Z,100.00
2022-11-05T21:54:18.185Z,100.00
2022-11-05T21:57:10.711Z,100.00
2022-11-05T21:59:49.357Z,100.00
2022-11-05T22:02:21.648Z,100.00
2022-11-05T22:04:53.834Z,100.00
2022-11-05T22:07:26.720Z,100.00
2022-11-05T22:09:56.070Z,100.00
2022-11-05T22:12:27.340Z,100.00
2022-11-05T22:14:57.148Z,100.00
2022-11-05T22:17:26.751Z,100.00
2022-11-05T22:19:56.016Z,100.00
2022-11-05T22:22:25.122Z,100.00
2022-11-05T22:24:54.238Z,100.00
2022-11-05T22:27:25.871Z,100.00
2022-11-05T22:29:56.815Z,100.00
2022-11-05T22:32:25.907Z,100.00
2022-11-05T22:34:55.070Z,100.00
2022-11-05T22:37:24.242Z,100.00
2022-11-05T22:39:53.380Z,100.00
2022-11-05T22:42:22.472Z,100.00
2022-11-05T22:44:51.841Z,100.00
2022-11-05T22:47:22.333Z,100.00
2022-11-05T22:49:51.545Z,100.00
2022-11-05T22:52:20.606Z,100.00
2022-11-05T22:54:50.412Z,100.00
2022-11-05T22:57:19.760Z,100.00
2022-11-05T22:59:49.182Z,100.00
2022-11-05T23:02:18.404Z,100.00
2022-11-05T23:04:49.622Z,100.00
2022-11-05T23:07:36.469Z,100.00
2022-11-05T23:10:23.350Z,100.00
2022-11-05T23:12:53.231Z,100.00
2022-11-05T23:15:39.899Z,100.00
2022-11-05T23:18:28.376Z,100.00
2022-11-05T23:21:20.592Z,100.00
2022-11-05T23:24:07.303Z,100.00
2022-11-05T23:26:51.123Z,100.00
2022-11-05T23:29:23.177Z,100.00
2022-11-05T23:32:10.947Z,100.00
2022-11-05T23:34:40.647Z,100.00
2022-11-05T23:37:28.453Z,100.00
2022-11-05T23:39:57.652Z,100.00
2022-11-05T23:42:43.986Z,100.00
2022-11-05T23:45:46.955Z,100.00
2022-11-05T23:48:24.955Z,100.00
2022-11-05T23:51:01.339Z,100.00
2022-11-05T23:53:35.160Z,100.00
2022-11-05T23:56:08.169Z,100.00
2022-11-05T23:58:38.783Z,100.00
